sensor_id;sensor_type;location;lat;lon;timestamp;P1;durP1;ratioP1;P2;durP2;ratioP2
22007;SDS011;11168;56.976;24.168;2023-11-22T00:01:21;11.18;;;6.32;;
22007;SDS011;11168;56.976;24.168;2023-11-22T00:03:48;11.18;;;5.93;;
22007;SDS011;11168;56.976;24.168;2023-11-22T00:06:16;10.38;;;6.20;;
22007;SDS011;11168;56.976;24.168;2023-11-22T00:08:48;10.27;;;6.07;;
22007;SDS011;11168;56.976;24.168;2023-11-22T00:11:15;11.55;;;6.18;;
22007;SDS011;11168;56.976;24.168;2023-11-22T00:13:42;10.38;;;5.70;;
22007;SDS011;11168;56.976;24.168;2023-11-22T00:16:08;9.63;;;5.60;;
22007;SDS011;11168;56.976;24.168;2023-11-22T00:18:36;12.60;;;5.93;;
22007;SDS011;11168;56.976;24.168;2023-11-22T00:21:07;9.52;;;5.43;;
22007;SDS011;11168;56.976;24.168;2023-11-22T00:23:34;8.43;;;5.25;;
22007;SDS011;11168;56.976;24.168;2023-11-22T00:26:01;9.25;;;5.22;;
22007;SDS011;11168;56.976;24.168;2023-11-22T00:28:28;9.77;;;5.22;;
22007;SDS011;11168;56.976;24.168;2023-11-22T00:30:55;7.88;;;4.63;;
22007;SDS011;11168;56.976;24.168;2023-11-22T00:33:22;7.70;;;4.10;;
22007;SDS011;11168;56.976;24.168;2023-11-22T00:35:49;6.55;;;4.07;;
22007;SDS011;11168;56.976;24.168;2023-11-22T00:38:16;6.82;;;4.05;;
22007;SDS011;11168;56.976;24.168;2023-11-22T00:40:43;4.32;;;2.97;;
22007;SDS011;11168;56.976;24.168;2023-11-22T00:43:11;5.00;;;2.78;;
22007;SDS011;11168;56.976;24.168;2023-11-22T00:45:38;5.35;;;2.90;;
22007;SDS011;11168;56.976;24.168;2023-11-22T00:48:05;3.47;;;2.43;;
22007;SDS011;11168;56.976;24.168;2023-11-22T00:50:32;3.72;;;2.80;;
22007;SDS011;11168;56.976;24.168;2023-11-22T00:52:59;5.38;;;3.22;;
22007;SDS011;11168;56.976;24.168;2023-11-22T00:55:26;5.60;;;3.35;;
22007;SDS011;11168;56.976;24.168;2023-11-22T00:57:53;4.20;;;2.75;;
22007;SDS011;11168;56.976;24.168;2023-11-22T01:00:20;4.32;;;3.00;;
22007;SDS011;11168;56.976;24.168;2023-11-22T01:02:47;4.63;;;2.85;;
22007;SDS011;11168;56.976;24.168;2023-11-22T01:05:14;4.32;;;2.92;;
22007;SDS011;11168;56.976;24.168;2023-11-22T01:07:42;5.65;;;3.08;;
22007;SDS011;11168;56.976;24.168;2023-11-22T01:10:09;4.95;;;3.10;;
22007;SDS011;11168;56.976;24.168;2023-11-22T01:12:36;4.78;;;3.30;;
22007;SDS011;11168;56.976;24.168;2023-11-22T01:15:03;5.55;;;3.50;;
22007;SDS011;11168;56.976;24.168;2023-11-22T01:17:32;5.63;;;3.53;;
22007;SDS011;11168;56.976;24.168;2023-11-22T01:20:01;5.78;;;3.22;;
22007;SDS011;11168;56.976;24.168;2023-11-22T01:22:29;6.28;;;3.72;;
22007;SDS011;11168;56.976;24.168;2023-11-22T01:24:57;7.05;;;3.75;;
22007;SDS011;11168;56.976;24.168;2023-11-22T01:27:24;7.10;;;3.90;;
22007;SDS011;11168;56.976;24.168;2023-11-22T01:29:51;7.13;;;3.88;;
22007;SDS011;11168;56.976;24.168;2023-11-22T01:32:20;7.90;;;4.20;;
22007;SDS011;11168;56.976;24.168;2023-11-22T01:34:47;7.60;;;3.80;;
22007;SDS011;11168;56.976;24.168;2023-11-22T01:37:15;6.47;;;3.88;;
22007;SDS011;11168;56.976;24.168;2023-11-22T01:39:42;5.97;;;3.80;;
22007;SDS011;11168;56.976;24.168;2023-11-22T01:42:09;6.97;;;3.90;;
22007;SDS011;11168;56.976;24.168;2023-11-22T01:44:36;9.85;;;4.20;;
22007;SDS011;11168;56.976;24.168;2023-11-22T01:47:04;6.55;;;4.28;;
22007;SDS011;11168;56.976;24.168;2023-11-22T01:49:31;7.25;;;4.10;;
22007;SDS011;11168;56.976;24.168;2023-11-22T01:51:59;7.47;;;4.20;;
22007;SDS011;11168;56.976;24.168;2023-11-22T01:54:27;7.18;;;4.25;;
22007;SDS011;11168;56.976;24.168;2023-11-22T01:56:55;6.13;;;3.65;;
22007;SDS011;11168;56.976;24.168;2023-11-22T01:59:22;8.35;;;4.28;;
22007;SDS011;11168;56.976;24.168;2023-11-22T02:01:49;7.63;;;4.43;;
22007;SDS011;11168;56.976;24.168;2023-11-22T02:04:17;9.15;;;4.50;;
22007;SDS011;11168;56.976;24.168;2023-11-22T02:06:44;9.55;;;4.40;;
22007;SDS011;11168;56.976;24.168;2023-11-22T02:09:11;6.88;;;4.50;;
22007;SDS011;11168;56.976;24.168;2023-11-22T02:11:42;8.40;;;4.57;;
22007;SDS011;11168;56.976;24.168;2023-11-22T02:14:11;9.33;;;4.43;;
22007;SDS011;11168;56.976;24.168;2023-11-22T02:16:39;7.55;;;4.50;;
22007;SDS011;11168;56.976;24.168;2023-11-22T02:19:07;7.07;;;4.25;;
22007;SDS011;11168;56.976;24.168;2023-11-22T02:21:40;7.97;;;4.43;;
22007;SDS011;11168;56.976;24.168;2023-11-22T02:24:07;9.05;;;4.78;;
22007;SDS011;11168;56.976;24.168;2023-11-22T02:26:34;6.90;;;4.45;;
22007;SDS011;11168;56.976;24.168;2023-11-22T02:29:02;8.55;;;4.65;;
22007;SDS011;11168;56.976;24.168;2023-11-22T02:31:33;7.53;;;4.70;;
22007;SDS011;11168;56.976;24.168;2023-11-22T02:34:00;9.15;;;4.68;;
22007;SDS011;11168;56.976;24.168;2023-11-22T02:36:27;9.32;;;4.78;;
22007;SDS011;11168;56.976;24.168;2023-11-22T02:38:54;8.45;;;4.43;;
22007;SDS011;11168;56.976;24.168;2023-11-22T02:41:21;7.72;;;4.75;;
22007;SDS011;11168;56.976;24.168;2023-11-22T02:43:48;9.02;;;4.45;;
22007;SDS011;11168;56.976;24.168;2023-11-22T02:46:15;7.90;;;4.63;;
22007;SDS011;11168;56.976;24.168;2023-11-22T02:48:42;8.75;;;4.90;;
22007;SDS011;11168;56.976;24.168;2023-11-22T02:51:11;7.15;;;4.40;;
22007;SDS011;11168;56.976;24.168;2023-11-22T02:53:40;8.40;;;4.40;;
22007;SDS011;11168;56.976;24.168;2023-11-22T02:56:10;6.72;;;4.28;;
22007;SDS011;11168;56.976;24.168;2023-11-22T02:58:37;7.40;;;3.90;;
22007;SDS011;11168;56.976;24.168;2023-11-22T03:01:04;7.40;;;4.68;;
22007;SDS011;11168;56.976;24.168;2023-11-22T03:03:31;7.50;;;4.43;;
22007;SDS011;11168;56.976;24.168;2023-11-22T03:05:58;7.50;;;4.15;;
22007;SDS011;11168;56.976;24.168;2023-11-22T03:08:25;10.52;;;4.70;;
22007;SDS011;11168;56.976;24.168;2023-11-22T03:10:53;7.57;;;4.40;;
22007;SDS011;11168;56.976;24.168;2023-11-22T03:13:20;8.23;;;4.47;;
22007;SDS011;11168;56.976;24.168;2023-11-22T03:15:47;7.88;;;3.72;;
22007;SDS011;11168;56.976;24.168;2023-11-22T03:18:14;8.07;;;4.32;;
22007;SDS011;11168;56.976;24.168;2023-11-22T03:20:43;7.90;;;4.40;;
22007;SDS011;11168;56.976;24.168;2023-11-22T03:23:10;9.30;;;4.60;;
22007;SDS011;11168;56.976;24.168;2023-11-22T03:25:37;8.23;;;4.40;;
22007;SDS011;11168;56.976;24.168;2023-11-22T03:28:04;6.88;;;4.38;;
22007;SDS011;11168;56.976;24.168;2023-11-22T03:30:31;8.25;;;5.00;;
22007;SDS011;11168;56.976;24.168;2023-11-22T03:32:58;8.35;;;4.55;;
22007;SDS011;11168;56.976;24.168;2023-11-22T03:35:25;8.63;;;4.57;;
22007;SDS011;11168;56.976;24.168;2023-11-22T03:37:52;6.78;;;4.55;;
22007;SDS011;11168;56.976;24.168;2023-11-22T03:40:19;8.75;;;4.63;;
22007;SDS011;11168;56.976;24.168;2023-11-22T03:42:46;7.97;;;4.70;;
22007;SDS011;11168;56.976;24.168;2023-11-22T03:45:13;10.82;;;5.82;;
22007;SDS011;11168;56.976;24.168;2023-11-22T03:47:40;8.57;;;4.70;;
22007;SDS011;11168;56.976;24.168;2023-11-22T03:50:07;7.95;;;4.90;;
22007;SDS011;11168;56.976;24.168;2023-11-22T03:52:34;7.05;;;4.65;;
22007;SDS011;11168;56.976;24.168;2023-11-22T03:55:02;12.23;;;4.72;;
22007;SDS011;11168;56.976;24.168;2023-11-22T03:57:30;8.43;;;4.30;;
22007;SDS011;11168;56.976;24.168;2023-11-22T03:59:57;8.38;;;4.55;;
22007;SDS011;11168;56.976;24.168;2023-11-22T04:02:24;9.25;;;4.38;;
22007;SDS011;11168;56.976;24.168;2023-11-22T04:04:51;7.68;;;4.38;;
22007;SDS011;11168;56.976;24.168;2023-11-22T04:07:18;8.35;;;4.85;;
22007;SDS011;11168;56.976;24.168;2023-11-22T04:09:45;8.05;;;5.00;;
22007;SDS011;11168;56.976;24.168;2023-11-22T04:12:12;9.00;;;5.18;;
22007;SDS011;11168;56.976;24.168;2023-11-22T04:14:39;10.70;;;5.63;;
22007;SDS011;11168;56.976;24.168;2023-11-22T04:17:06;7.90;;;4.97;;
22007;SDS011;11168;56.976;24.168;2023-11-22T04:19:33;10.02;;;5.15;;
22007;SDS011;11168;56.976;24.168;2023-11-22T04:22:01;9.35;;;5.45;;
22007;SDS011;11168;56.976;24.168;2023-11-22T04:24:27;10.65;;;5.22;;
22007;SDS011;11168;56.976;24.168;2023-11-22T04:26:54;9.98;;;5.20;;
22007;SDS011;11168;56.976;24.168;2023-11-22T04:29:21;10.25;;;5.68;;
22007;SDS011;11168;56.976;24.168;2023-11-22T04:31:48;10.35;;;5.40;;
22007;SDS011;11168;56.976;24.168;2023-11-22T04:34:15;9.93;;;5.75;;
22007;SDS011;11168;56.976;24.168;2023-11-22T04:36:42;12.68;;;6.03;;
22007;SDS011;11168;56.976;24.168;2023-11-22T04:39:13;11.68;;;5.75;;
22007;SDS011;11168;56.976;24.168;2023-11-22T04:41:40;9.32;;;5.75;;
22007;SDS011;11168;56.976;24.168;2023-11-22T04:44:07;11.02;;;6.35;;
22007;SDS011;11168;56.976;24.168;2023-11-22T04:46:34;10.27;;;6.40;;
22007;SDS011;11168;56.976;24.168;2023-11-22T04:49:01;11.20;;;6.28;;
22007;SDS011;11168;56.976;24.168;2023-11-22T04:51:28;11.82;;;7.15;;
22007;SDS011;11168;56.976;24.168;2023-11-22T04:53:55;14.05;;;7.53;;
22007;SDS011;11168;56.976;24.168;2023-11-22T04:56:22;13.85;;;7.95;;
22007;SDS011;11168;56.976;24.168;2023-11-22T04:58:49;12.18;;;8.00;;
22007;SDS011;11168;56.976;24.168;2023-11-22T05:01:16;16.98;;;7.93;;
22007;SDS011;11168;56.976;24.168;2023-11-22T05:03:47;15.60;;;8.77;;
22007;SDS011;11168;56.976;24.168;2023-11-22T05:06:14;17.75;;;8.77;;
22007;SDS011;11168;56.976;24.168;2023-11-22T05:08:42;29.08;;;14.45;;
22007;SDS011;11168;56.976;24.168;2023-11-22T05:11:09;24.50;;;12.95;;
22007;SDS011;11168;56.976;24.168;2023-11-22T05:13:37;33.33;;;16.70;;
22007;SDS011;11168;56.976;24.168;2023-11-22T05:16:03;36.15;;;18.20;;
22007;SDS011;11168;56.976;24.168;2023-11-22T05:18:31;30.52;;;16.90;;
22007;SDS011;11168;56.976;24.168;2023-11-22T05:20:58;32.30;;;15.52;;
22007;SDS011;11168;56.976;24.168;2023-11-22T05:23:25;31.88;;;15.35;;
22007;SDS011;11168;56.976;24.168;2023-11-22T05:25:52;37.67;;;15.88;;
22007;SDS011;11168;56.976;24.168;2023-11-22T05:28:19;26.33;;;13.45;;
22007;SDS011;11168;56.976;24.168;2023-11-22T05:30:45;26.55;;;13.55;;
22007;SDS011;11168;56.976;24.168;2023-11-22T05:33:13;29.13;;;15.27;;
22007;SDS011;11168;56.976;24.168;2023-11-22T05:35:40;25.95;;;12.95;;
22007;SDS011;11168;56.976;24.168;2023-11-22T05:38:07;27.00;;;14.02;;
22007;SDS011;11168;56.976;24.168;2023-11-22T05:40:35;28.52;;;14.23;;
22007;SDS011;11168;56.976;24.168;2023-11-22T05:43:02;29.52;;;14.75;;
22007;SDS011;11168;56.976;24.168;2023-11-22T05:45:29;30.30;;;13.93;;
22007;SDS011;11168;56.976;24.168;2023-11-22T05:47:56;30.38;;;14.60;;
22007;SDS011;11168;56.976;24.168;2023-11-22T05:50:23;34.20;;;15.05;;
22007;SDS011;11168;56.976;24.168;2023-11-22T05:52:50;36.85;;;16.67;;
22007;SDS011;11168;56.976;24.168;2023-11-22T05:55:17;36.30;;;16.90;;
22007;SDS011;11168;56.976;24.168;2023-11-22T05:57:44;32.25;;;15.18;;
22007;SDS011;11168;56.976;24.168;2023-11-22T06:00:11;33.92;;;16.42;;
22007;SDS011;11168;56.976;24.168;2023-11-22T06:02:40;35.42;;;15.55;;
22007;SDS011;11168;56.976;24.168;2023-11-22T06:05:08;33.25;;;15.20;;
22007;SDS011;11168;56.976;24.168;2023-11-22T06:07:36;37.45;;;16.45;;
22007;SDS011;11168;56.976;24.168;2023-11-22T06:10:03;45.75;;;20.48;;
22007;SDS011;11168;56.976;24.168;2023-11-22T06:12:30;49.40;;;20.88;;
22007;SDS011;11168;56.976;24.168;2023-11-22T06:14:58;43.35;;;20.20;;
22007;SDS011;11168;56.976;24.168;2023-11-22T06:17:25;50.53;;;20.48;;
22007;SDS011;11168;56.976;24.168;2023-11-22T06:19:52;54.63;;;24.98;;
22007;SDS011;11168;56.976;24.168;2023-11-22T06:22:19;65.88;;;27.67;;
22007;SDS011;11168;56.976;24.168;2023-11-22T06:24:46;60.00;;;27.50;;
22007;SDS011;11168;56.976;24.168;2023-11-22T06:27:14;66.95;;;28.73;;
22007;SDS011;11168;56.976;24.168;2023-11-22T06:29:42;66.03;;;29.00;;
22007;SDS011;11168;56.976;24.168;2023-11-22T06:32:11;67.88;;;29.30;;
22007;SDS011;11168;56.976;24.168;2023-11-22T06:34:38;76.75;;;31.20;;
22007;SDS011;11168;56.976;24.168;2023-11-22T06:37:06;71.18;;;30.55;;
22007;SDS011;11168;56.976;24.168;2023-11-22T06:39:35;68.57;;;31.92;;
22007;SDS011;11168;56.976;24.168;2023-11-22T06:42:02;74.43;;;33.35;;
22007;SDS011;11168;56.976;24.168;2023-11-22T06:44:29;82.50;;;34.95;;
22007;SDS011;11168;56.976;24.168;2023-11-22T06:46:56;82.15;;;36.08;;
22007;SDS011;11168;56.976;24.168;2023-11-22T06:49:23;77.20;;;34.50;;
22007;SDS011;11168;56.976;24.168;2023-11-22T06:51:50;81.90;;;34.10;;
22007;SDS011;11168;56.976;24.168;2023-11-22T06:54:19;73.40;;;33.00;;
22007;SDS011;11168;56.976;24.168;2023-11-22T06:56:47;76.45;;;33.45;;
22007;SDS011;11168;56.976;24.168;2023-11-22T06:59:14;73.70;;;32.30;;
22007;SDS011;11168;56.976;24.168;2023-11-22T07:01:41;68.72;;;31.13;;
22007;SDS011;11168;56.976;24.168;2023-11-22T07:04:08;68.80;;;30.55;;
22007;SDS011;11168;56.976;24.168;2023-11-22T07:06:36;82.88;;;35.72;;
22007;SDS011;11168;56.976;24.168;2023-11-22T07:09:04;100.32;;;44.65;;
22007;SDS011;11168;56.976;24.168;2023-11-22T07:11:32;96.65;;;40.08;;
22007;SDS011;11168;56.976;24.168;2023-11-22T07:13:59;76.03;;;34.33;;
22007;SDS011;11168;56.976;24.168;2023-11-22T07:16:26;77.47;;;36.65;;
22007;SDS011;11168;56.976;24.168;2023-11-22T07:18:53;67.35;;;33.67;;
22007;SDS011;11168;56.976;24.168;2023-11-22T07:21:20;62.38;;;29.75;;
22007;SDS011;11168;56.976;24.168;2023-11-22T07:23:47;47.78;;;24.85;;
22007;SDS011;11168;56.976;24.168;2023-11-22T07:26:17;38.67;;;19.20;;
22007;SDS011;11168;56.976;24.168;2023-11-22T07:28:46;35.30;;;15.85;;
22007;SDS011;11168;56.976;24.168;2023-11-22T07:31:13;29.40;;;16.08;;
22007;SDS011;11168;56.976;24.168;2023-11-22T07:33:40;28.27;;;16.55;;
22007;SDS011;11168;56.976;24.168;2023-11-22T07:36:08;28.73;;;15.18;;
22007;SDS011;11168;56.976;24.168;2023-11-22T07:38:36;26.80;;;14.98;;
22007;SDS011;11168;56.976;24.168;2023-11-22T07:41:04;28.63;;;14.27;;
22007;SDS011;11168;56.976;24.168;2023-11-22T07:43:33;27.67;;;14.10;;
22007;SDS011;11168;56.976;24.168;2023-11-22T07:46:04;25.77;;;14.30;;
22007;SDS011;11168;56.976;24.168;2023-11-22T07:48:40;24.75;;;12.80;;
22007;SDS011;11168;56.976;24.168;2023-11-22T07:51:08;26.60;;;13.65;;
22007;SDS011;11168;56.976;24.168;2023-11-22T07:53:35;25.23;;;12.77;;
22007;SDS011;11168;56.976;24.168;2023-11-22T07:56:02;24.85;;;13.20;;
22007;SDS011;11168;56.976;24.168;2023-11-22T07:58:31;25.48;;;13.98;;
22007;SDS011;11168;56.976;24.168;2023-11-22T08:00:58;29.38;;;15.10;;
22007;SDS011;11168;56.976;24.168;2023-11-22T08:03:26;25.35;;;13.77;;
22007;SDS011;11168;56.976;24.168;2023-11-22T08:05:53;23.58;;;13.68;;
22007;SDS011;11168;56.976;24.168;2023-11-22T08:08:22;21.77;;;13.77;;
22007;SDS011;11168;56.976;24.168;2023-11-22T08:10:50;24.90;;;15.18;;
22007;SDS011;11168;56.976;24.168;2023-11-22T08:13:20;25.00;;;15.45;;
22007;SDS011;11168;56.976;24.168;2023-11-22T08:15:49;32.63;;;18.60;;
22007;SDS011;11168;56.976;24.168;2023-11-22T08:18:16;30.08;;;18.60;;
22007;SDS011;11168;56.976;24.168;2023-11-22T08:20:44;56.80;;;29.05;;
22007;SDS011;11168;56.976;24.168;2023-11-22T08:23:11;61.08;;;31.08;;
22007;SDS011;11168;56.976;24.168;2023-11-22T08:25:40;77.88;;;37.33;;
22007;SDS011;11168;56.976;24.168;2023-11-22T08:28:09;63.95;;;32.78;;
22007;SDS011;11168;56.976;24.168;2023-11-22T08:30:36;66.53;;;32.05;;
22007;SDS011;11168;56.976;24.168;2023-11-22T08:33:03;67.07;;;33.08;;
22007;SDS011;11168;56.976;24.168;2023-11-22T08:35:30;59.45;;;31.63;;
22007;SDS011;11168;56.976;24.168;2023-11-22T08:37:58;67.85;;;32.75;;
22007;SDS011;11168;56.976;24.168;2023-11-22T08:40:25;67.07;;;32.67;;
22007;SDS011;11168;56.976;24.168;2023-11-22T08:42:52;63.78;;;32.92;;
22007;SDS011;11168;56.976;24.168;2023-11-22T08:45:20;64.35;;;33.22;;
22007;SDS011;11168;56.976;24.168;2023-11-22T08:47:47;69.78;;;34.35;;
22007;SDS011;11168;56.976;24.168;2023-11-22T08:50:14;60.72;;;31.65;;
22007;SDS011;11168;56.976;24.168;2023-11-22T08:52:42;48.10;;;25.05;;
22007;SDS011;11168;56.976;24.168;2023-11-22T08:55:11;43.60;;;23.13;;
22007;SDS011;11168;56.976;24.168;2023-11-22T08:57:41;46.15;;;22.13;;
22007;SDS011;11168;56.976;24.168;2023-11-22T09:00:08;44.55;;;24.00;;
22007;SDS011;11168;56.976;24.168;2023-11-22T09:02:36;63.25;;;32.55;;
22007;SDS011;11168;56.976;24.168;2023-11-22T09:05:04;58.33;;;33.45;;
22007;SDS011;11168;56.976;24.168;2023-11-22T09:07:35;58.10;;;31.30;;
22007;SDS011;11168;56.976;24.168;2023-11-22T09:10:03;54.13;;;29.13;;
22007;SDS011;11168;56.976;24.168;2023-11-22T09:12:37;69.40;;;38.42;;
22007;SDS011;11168;56.976;24.168;2023-11-22T09:15:07;76.20;;;43.08;;
22007;SDS011;11168;56.976;24.168;2023-11-22T09:17:39;66.63;;;41.22;;
22007;SDS011;11168;56.976;24.168;2023-11-22T09:20:13;60.40;;;36.38;;
22007;SDS011;11168;56.976;24.168;2023-11-22T09:22:42;41.90;;;24.20;;
22007;SDS011;11168;56.976;24.168;2023-11-22T09:25:20;35.58;;;20.58;;
22007;SDS011;11168;56.976;24.168;2023-11-22T09:27:50;34.07;;;21.10;;
22007;SDS011;11168;56.976;24.168;2023-11-22T09:30:23;28.90;;;16.33;;
22007;SDS011;11168;56.976;24.168;2023-11-22T09:33:02;30.60;;;17.40;;
22007;SDS011;11168;56.976;24.168;2023-11-22T09:35:32;28.50;;;16.42;;
22007;SDS011;11168;56.976;24.168;2023-11-22T09:38:04;25.58;;;15.00;;
22007;SDS011;11168;56.976;24.168;2023-11-22T09:40:42;20.83;;;11.40;;
22007;SDS011;11168;56.976;24.168;2023-11-22T09:43:15;22.08;;;12.35;;
22007;SDS011;11168;56.976;24.168;2023-11-22T09:45:46;21.55;;;12.15;;
22007;SDS011;11168;56.976;24.168;2023-11-22T09:48:21;16.77;;;10.90;;
22007;SDS011;11168;56.976;24.168;2023-11-22T09:51:03;16.38;;;10.88;;
22007;SDS011;11168;56.976;24.168;2023-11-22T09:53:57;10.70;;;7.43;;
22007;SDS011;11168;56.976;24.168;2023-11-22T09:56:27;18.88;;;11.45;;
22007;SDS011;11168;56.976;24.168;2023-11-22T09:58:55;14.90;;;9.02;;
22007;SDS011;11168;56.976;24.168;2023-11-22T10:01:24;10.18;;;6.00;;
22007;SDS011;11168;56.976;24.168;2023-11-22T10:03:51;12.30;;;7.95;;
22007;SDS011;11168;56.976;24.168;2023-11-22T10:06:19;12.40;;;8.25;;
22007;SDS011;11168;56.976;24.168;2023-11-22T10:08:46;14.55;;;8.07;;
22007;SDS011;11168;56.976;24.168;2023-11-22T10:11:14;9.85;;;6.05;;
22007;SDS011;11168;56.976;24.168;2023-11-22T10:13:49;15.95;;;8.07;;
22007;SDS011;11168;56.976;24.168;2023-11-22T10:16:17;14.43;;;8.35;;
22007;SDS011;11168;56.976;24.168;2023-11-22T10:18:46;14.15;;;8.25;;
22007;SDS011;11168;56.976;24.168;2023-11-22T10:21:24;11.00;;;6.72;;
22007;SDS011;11168;56.976;24.168;2023-11-22T10:23:57;8.90;;;5.78;;
22007;SDS011;11168;56.976;24.168;2023-11-22T10:26:29;10.18;;;6.22;;
22007;SDS011;11168;56.976;24.168;2023-11-22T10:28:56;9.88;;;5.85;;
22007;SDS011;11168;56.976;24.168;2023-11-22T10:31:25;10.18;;;6.70;;
22007;SDS011;11168;56.976;24.168;2023-11-22T10:33:52;9.55;;;5.32;;
22007;SDS011;11168;56.976;24.168;2023-11-22T10:36:21;7.55;;;4.68;;
22007;SDS011;11168;56.976;24.168;2023-11-22T10:38:49;10.30;;;5.78;;
22007;SDS011;11168;56.976;24.168;2023-11-22T10:41:19;9.68;;;6.13;;
22007;SDS011;11168;56.976;24.168;2023-11-22T10:43:48;14.80;;;9.55;;
22007;SDS011;11168;56.976;24.168;2023-11-22T10:46:18;11.18;;;6.75;;
22007;SDS011;11168;56.976;24.168;2023-11-22T10:48:48;10.40;;;6.37;;
22007;SDS011;11168;56.976;24.168;2023-11-22T10:51:15;12.38;;;7.30;;
22007;SDS011;11168;56.976;24.168;2023-11-22T10:53:47;13.23;;;7.43;;
22007;SDS011;11168;56.976;24.168;2023-11-22T10:56:17;14.82;;;9.35;;
22007;SDS011;11168;56.976;24.168;2023-11-22T10:58:48;15.45;;;9.00;;
22007;SDS011;11168;56.976;24.168;2023-11-22T11:01:27;10.60;;;6.47;;
22007;SDS011;11168;56.976;24.168;2023-11-22T11:03:56;11.38;;;7.25;;
22007;SDS011;11168;56.976;24.168;2023-11-22T11:06:38;12.15;;;7.22;;
22007;SDS011;11168;56.976;24.168;2023-11-22T11:09:09;13.95;;;8.35;;
22007;SDS011;11168;56.976;24.168;2023-11-22T11:11:41;14.82;;;9.48;;
22007;SDS011;11168;56.976;24.168;2023-11-22T11:14:10;14.60;;;8.50;;
22007;SDS011;11168;56.976;24.168;2023-11-22T11:16:39;15.88;;;9.10;;
22007;SDS011;11168;56.976;24.168;2023-11-22T11:19:14;13.55;;;8.75;;
22007;SDS011;11168;56.976;24.168;2023-11-22T11:21:44;15.38;;;8.50;;
22007;SDS011;11168;56.976;24.168;2023-11-22T11:24:11;11.98;;;7.18;;
22007;SDS011;11168;56.976;24.168;2023-11-22T11:26:38;11.48;;;6.47;;
22007;SDS011;11168;56.976;24.168;2023-11-22T11:29:06;11.27;;;6.38;;
22007;SDS011;11168;56.976;24.168;2023-11-22T11:31:57;9.38;;;5.88;;
22007;SDS011;11168;56.976;24.168;2023-11-22T11:34:24;10.00;;;6.35;;
22007;SDS011;11168;56.976;24.168;2023-11-22T11:36:52;13.25;;;6.80;;
22007;SDS011;11168;56.976;24.168;2023-11-22T11:39:26;16.25;;;7.78;;
22007;SDS011;11168;56.976;24.168;2023-11-22T11:42:07;10.20;;;5.88;;
22007;SDS011;11168;56.976;24.168;2023-11-22T11:44:51;11.10;;;6.25;;
22007;SDS011;11168;56.976;24.168;2023-11-22T11:47:32;9.70;;;5.05;;
22007;SDS011;11168;56.976;24.168;2023-11-22T11:50:00;8.35;;;5.68;;
22007;SDS011;11168;56.976;24.168;2023-11-22T11:52:28;9.18;;;5.45;;
22007;SDS011;11168;56.976;24.168;2023-11-22T11:54:57;7.53;;;5.40;;
22007;SDS011;11168;56.976;24.168;2023-11-22T11:57:26;9.93;;;6.07;;
22007;SDS011;11168;56.976;24.168;2023-11-22T11:59:57;11.18;;;6.32;;
22007;SDS011;11168;56.976;24.168;2023-11-22T12:02:25;13.18;;;7.10;;
22007;SDS011;11168;56.976;24.168;2023-11-22T12:04:53;12.73;;;6.88;;
22007;SDS011;11168;56.976;24.168;2023-11-22T12:07:21;11.05;;;6.82;;
22007;SDS011;11168;56.976;24.168;2023-11-22T12:09:48;9.68;;;6.10;;
22007;SDS011;11168;56.976;24.168;2023-11-22T12:12:15;9.48;;;6.38;;
22007;SDS011;11168;56.976;24.168;2023-11-22T12:14:41;10.02;;;6.15;;
22007;SDS011;11168;56.976;24.168;2023-11-22T12:17:09;11.43;;;6.70;;
22007;SDS011;11168;56.976;24.168;2023-11-22T12:19:39;11.80;;;6.03;;
22007;SDS011;11168;56.976;24.168;2023-11-22T12:22:06;14.60;;;6.95;;
22007;SDS011;11168;56.976;24.168;2023-11-22T12:24:34;9.50;;;6.30;;
22007;SDS011;11168;56.976;24.168;2023-11-22T12:27:01;10.30;;;6.05;;
22007;SDS011;11168;56.976;24.168;2023-11-22T12:29:28;6.38;;;3.80;;
22007;SDS011;11168;56.976;24.168;2023-11-22T12:31:56;11.60;;;6.43;;
22007;SDS011;11168;56.976;24.168;2023-11-22T12:34:23;15.07;;;6.82;;
22007;SDS011;11168;56.976;24.168;2023-11-22T12:36:53;13.40;;;6.68;;
22007;SDS011;11168;56.976;24.168;2023-11-22T12:39:20;13.02;;;7.18;;
22007;SDS011;11168;56.976;24.168;2023-11-22T12:41:47;11.77;;;6.05;;
22007;SDS011;11168;56.976;24.168;2023-11-22T12:44:31;12.30;;;6.78;;
22007;SDS011;11168;56.976;24.168;2023-11-22T12:46:59;10.85;;;6.35;;
22007;SDS011;11168;56.976;24.168;2023-11-22T12:49:30;14.57;;;6.32;;
22007;SDS011;11168;56.976;24.168;2023-11-22T12:51:58;12.02;;;6.60;;
22007;SDS011;11168;56.976;24.168;2023-11-22T12:54:26;11.88;;;6.90;;
22007;SDS011;11168;56.976;24.168;2023-11-22T12:56:53;13.23;;;6.93;;
22007;SDS011;11168;56.976;24.168;2023-11-22T12:59:25;13.82;;;6.80;;
22007;SDS011;11168;56.976;24.168;2023-11-22T13:01:54;11.13;;;6.32;;
22007;SDS011;11168;56.976;24.168;2023-11-22T13:04:22;12.40;;;6.38;;
22007;SDS011;11168;56.976;24.168;2023-11-22T13:06:49;14.38;;;6.30;;
22007;SDS011;11168;56.976;24.168;2023-11-22T13:09:17;14.27;;;5.90;;
22007;SDS011;11168;56.976;24.168;2023-11-22T13:11:44;11.63;;;6.00;;
22007;SDS011;11168;56.976;24.168;2023-11-22T13:14:12;9.70;;;4.85;;
22007;SDS011;11168;56.976;24.168;2023-11-22T13:16:43;13.18;;;6.00;;
22007;SDS011;11168;56.976;24.168;2023-11-22T13:19:11;14.02;;;5.95;;
22007;SDS011;11168;56.976;24.168;2023-11-22T13:21:38;11.45;;;5.55;;
22007;SDS011;11168;56.976;24.168;2023-11-22T13:24:07;10.63;;;5.68;;
22007;SDS011;11168;56.976;24.168;2023-11-22T13:26:36;11.13;;;5.40;;
22007;SDS011;11168;56.976;24.168;2023-11-22T13:29:03;9.85;;;4.78;;
22007;SDS011;11168;56.976;24.168;2023-11-22T13:31:30;12.70;;;6.03;;
22007;SDS011;11168;56.976;24.168;2023-11-22T13:33:57;12.02;;;5.68;;
22007;SDS011;11168;56.976;24.168;2023-11-22T13:36:24;13.23;;;5.88;;
22007;SDS011;11168;56.976;24.168;2023-11-22T13:38:51;13.52;;;5.88;;
22007;SDS011;11168;56.976;24.168;2023-11-22T13:41:18;12.50;;;5.47;;
22007;SDS011;11168;56.976;24.168;2023-11-22T13:43:46;10.35;;;5.53;;
22007;SDS011;11168;56.976;24.168;2023-11-22T13:46:14;7.28;;;4.47;;
22007;SDS011;11168;56.976;24.168;2023-11-22T13:48:42;8.68;;;4.85;;
22007;SDS011;11168;56.976;24.168;2023-11-22T13:51:09;10.00;;;4.57;;
22007;SDS011;11168;56.976;24.168;2023-11-22T13:53:37;10.40;;;5.38;;
22007;SDS011;11168;56.976;24.168;2023-11-22T13:56:10;10.80;;;5.85;;
22007;SDS011;11168;56.976;24.168;2023-11-22T13:58:39;11.40;;;5.78;;
22007;SDS011;11168;56.976;24.168;2023-11-22T14:01:06;12.20;;;6.40;;
22007;SDS011;11168;56.976;24.168;2023-11-22T14:03:38;9.32;;;5.28;;
22007;SDS011;11168;56.976;24.168;2023-11-22T14:06:07;11.77;;;5.70;;
22007;SDS011;11168;56.976;24.168;2023-11-22T14:08:36;10.43;;;6.22;;
22007;SDS011;11168;56.976;24.168;2023-11-22T14:11:03;12.10;;;6.05;;
22007;SDS011;11168;56.976;24.168;2023-11-22T14:13:30;11.23;;;5.57;;
22007;SDS011;11168;56.976;24.168;2023-11-22T14:15:57;11.85;;;5.97;;
22007;SDS011;11168;56.976;24.168;2023-11-22T14:18:24;10.80;;;5.68;;
22007;SDS011;11168;56.976;24.168;2023-11-22T14:20:52;9.18;;;5.45;;
22007;SDS011;11168;56.976;24.168;2023-11-22T14:23:20;9.80;;;5.70;;
22007;SDS011;11168;56.976;24.168;2023-11-22T14:25:47;10.45;;;5.38;;
22007;SDS011;11168;56.976;24.168;2023-11-22T14:28:14;10.95;;;5.95;;